Webcam Flughafen St.Gallen-Altenrhein

Live-Bilder und Zeitraffer LSZR / ACH.

 

Live aus Altenrhein
LIVE
LSZR 181050Z 27007KT 240V310 8000 FEW020 BKN040 07/03 Q1019 NOSIG RMK D
Zeitraffer heute
2021-04-18 00:14:59
LSZR 172150Z AUTO 02005KT 350V060 9999 BKN039 07/00 Q1019